Time;durP1;ratioP1;P1;durP2;ratioP2;P2;SDS_P1;SDS_P2;PMS_P1;PMS_P2;Temp;Humidity;BMP_temperature;BMP_pressure;BME280_temperature;BME280_humidity;BME280_pressure;Samples;Min_cycle;Max_cycle;Signal;HPM_P1;HPM_P2
2022/04/27 00:02:20;;;;;;;0.30;0.30;;;5.20;99.90;;;;;;5056194;28;20223;-68
2022/04/27 00:04:46;;;;;;;0.33;0.33;;;5.20;99.90;;;;;;5056287;28;20182;-67
2022/04/27 00:07:12;;;;;;;0.53;0.53;;;5.10;99.90;;;;;;5056184;28;20646;-67
2022/04/27 00:09:37;;;;;;;0.40;0.40;;;5.10;99.90;;;;;;5056091;28;20217;-66
2022/04/27 00:12:04;;;;;;;0.40;0.40;;;5.20;99.90;;;;;;5056050;28;20174;-67
2022/04/27 00:14:31;;;;;;;0.30;0.30;;;5.20;99.90;;;;;;5056166;28;20202;-66
2022/04/27 00:16:58;;;;;;;0.40;0.40;;;5.00;99.90;;;;;;5055819;28;20166;-66
2022/04/27 00:19:25;;;;;;;0.40;0.40;;;5.20;99.90;;;;;;5055743;28;20205;-67
2022/04/27 00:21:51;;;;;;;0.40;0.40;;;5.10;99.90;;;;;;5055531;28;20207;-66
2022/04/27 00:24:17;;;;;;;0.65;0.65;;;5.00;99.90;;;;;;5055950;28;20163;-67
2022/04/27 00:26:44;;;;;;;0.50;0.50;;;4.90;99.90;;;;;;5055764;28;20170;-66
2022/04/27 00:29:09;;;;;;;1.17;1.08;;;5.00;99.90;;;;;;5055875;28;20188;-68
2022/04/27 00:31:36;;;;;;;0.40;0.40;;;5.00;99.90;;;;;;5055637;28;20525;-67
2022/04/27 00:34:02;;;;;;;0.40;0.40;;;4.90;99.90;;;;;;5055677;28;20249;-66
2022/04/27 00:36:28;;;;;;;0.30;0.30;;;4.90;99.90;;;;;;5055716;28;20185;-69
2022/04/27 00:38:53;;;;;;;0.40;0.40;;;4.90;99.90;;;;;;5054575;28;20202;-66
2022/04/27 00:41:19;;;;;;;0.40;0.40;;;4.90;99.90;;;;;;5055359;28;20446;-67
2022/04/27 00:43:45;;;;;;;1.93;1.90;;;4.80;99.90;;;;;;5055872;28;20258;-66
2022/04/27 00:46:11;;;;;;;0.57;0.57;;;4.90;99.90;;;;;;5055410;28;20171;-66
2022/04/27 00:48:41;;;;;;;0.30;0.30;;;4.90;99.90;;;;;;5055442;28;20404;-66
2022/04/27 00:51:10;;;;;;;0.40;0.40;;;4.90;99.90;;;;;;5055237;28;20663;-66
2022/04/27 00:53:37;;;;;;;0.40;0.40;;;4.80;99.90;;;;;;5055494;28;20170;-67
2022/04/27 00:56:03;;;;;;;1.27;1.27;;;4.80;99.90;;;;;;5055404;28;20170;-67
2022/04/27 00:58:29;;;;;;;0.40;0.40;;;4.80;99.90;;;;;;5055301;28;20174;-67
2022/04/27 01:00:55;;;;;;;0.40;0.40;;;4.80;99.90;;;;;;5054928;28;20260;-68
2022/04/27 01:03:22;;;;;;;0.40;0.40;;;4.80;99.90;;;;;;5055313;28;20166;-67
2022/04/27 01:05:48;;;;;;;0.40;0.40;;;4.70;99.90;;;;;;5055405;28;20253;-67
2022/04/27 01:08:16;;;;;;;0.40;0.40;;;4.70;99.90;;;;;;5055204;28;20170;-67
2022/04/27 01:10:43;;;;;;;0.40;0.40;;;4.70;99.90;;;;;;5054852;28;20198;-66
2022/04/27 01:13:11;;;;;;;0.38;0.38;;;4.60;99.90;;;;;;5055313;28;20181;-66
2022/04/27 01:15:37;;;;;;;0.40;0.40;;;4.60;99.90;;;;;;5054932;28;20166;-67
2022/04/27 01:18:03;;;;;;;0.40;0.40;;;4.70;99.90;;;;;;5055193;28;20308;-67
2022/04/27 01:20:45;;;;;;;0.57;0.57;;;4.60;99.90;;;;;;5054452;28;20229;-66
2022/04/27 01:23:14;;;;;;;0.32;0.32;;;4.60;99.90;;;;;;5054938;28;20647;-67
2022/04/27 01:26:01;;;;;;;0.50;0.50;;;4.60;99.90;;;;;;5054714;28;20170;-66
2022/04/27 01:28:30;;;;;;;0.40;0.40;;;4.50;99.90;;;;;;5054851;28;20670;-67
2022/04/27 01:31:00;;;;;;;0.30;0.30;;;4.60;99.90;;;;;;5054397;28;20186;-67
2022/04/27 01:33:27;;;;;;;0.40;0.40;;;4.60;99.90;;;;;;5054693;28;20568;-67
2022/04/27 01:35:53;;;;;;;1.60;1.50;;;4.60;99.90;;;;;;5054350;28;20163;-66
2022/04/27 01:38:19;;;;;;;0.38;0.38;;;4.50;99.90;;;;;;5054668;28;20169;-67
2022/04/27 01:40:53;;;;;;;0.40;0.40;;;4.40;99.90;;;;;;5054146;28;20201;-67
2022/04/27 01:43:19;;;;;;;0.30;0.30;;;4.40;99.90;;;;;;5054469;28;20408;-66
2022/04/27 01:45:45;;;;;;;0.43;0.43;;;4.50;99.90;;;;;;5054398;28;20170;-67
2022/04/27 01:48:13;;;;;;;0.30;0.30;;;4.40;99.90;;;;;;5054333;28;20224;-68
2022/04/27 01:50:39;;;;;;;0.50;0.50;;;4.40;99.90;;;;;;5053938;28;20861;-66
2022/04/27 01:55:50;;;;;;;0.30;0.30;;;4.50;99.90;;;;;;5054231;28;20400;-66
2022/04/27 01:58:16;;;;;;;0.30;0.30;;;4.50;99.90;;;;;;5052972;28;20181;-66
2022/04/27 02:00:42;;;;;;;0.40;0.40;;;4.50;99.90;;;;;;5053635;28;20748;-67
2022/04/27 02:03:07;;;;;;;0.40;0.40;;;4.40;99.90;;;;;;5053944;28;20444;-65
2022/04/27 02:05:34;;;;;;;0.30;0.30;;;4.40;99.90;;;;;;5053941;28;20639;-67
2022/04/27 02:08:00;;;;;;;0.40;0.40;;;4.30;99.90;;;;;;5053919;28;20169;-66
2022/04/27 02:10:26;;;;;;;0.40;0.40;;;4.30;99.90;;;;;;5053851;28;20194;-66
2022/04/27 02:12:51;;;;;;;0.40;0.40;;;4.30;99.90;;;;;;5053965;28;20670;-67
2022/04/27 02:15:17;;;;;;;0.40;0.40;;;4.30;99.90;;;;;;5052609;28;20182;-67
2022/04/27 02:17:43;;;;;;;0.40;0.40;;;4.30;99.90;;;;;;5053987;28;20170;-66
2022/04/27 02:20:09;;;;;;;1.97;1.87;;;4.20;99.90;;;;;;5053591;28;20202;-66
2022/04/27 02:22:35;;;;;;;0.30;0.30;;;4.20;99.90;;;;;;5053901;28;20247;-67
2022/04/27 02:25:02;;;;;;;0.40;0.40;;;4.20;99.90;;;;;;5053823;28;20185;-67
2022/04/27 02:27:28;;;;;;;0.40;0.40;;;4.10;99.90;;;;;;5053783;28;20556;-66
2022/04/27 02:29:54;;;;;;;0.30;0.30;;;4.00;99.90;;;;;;5052072;28;20208;-66
2022/04/27 02:32:20;;;;;;;0.40;0.40;;;4.00;99.90;;;;;;5053529;28;20236;-67
2022/04/27 02:34:46;;;;;;;0.40;0.40;;;4.10;99.90;;;;;;5053512;28;20181;-67
2022/04/27 02:37:11;;;;;;;0.30;0.30;;;4.10;99.90;;;;;;5053529;28;20178;-67
2022/04/27 02:39:37;;;;;;;0.37;0.37;;;4.00;99.90;;;;;;5053398;28;20244;-67
2022/04/27 02:42:03;;;;;;;0.40;0.40;;;4.00;99.90;;;;;;5053359;28;20170;-68
2022/04/27 02:44:29;;;;;;;0.40;0.40;;;4.10;99.90;;;;;;5053294;28;20164;-66
2022/04/27 02:46:55;;;;;;;0.40;0.40;;;4.10;99.90;;;;;;5053348;28;20175;-65
2022/04/27 02:52:06;;;;;;;0.38;0.38;;;4.00;99.90;;;;;;5053332;28;20707;-66
2022/04/27 02:54:32;;;;;;;0.30;0.30;;;3.90;99.90;;;;;;5053505;28;20635;-67
2022/04/27 02:56:57;;;;;;;0.40;0.40;;;3.90;99.90;;;;;;5053423;28;20166;-67
2022/04/27 02:59:23;;;;;;;0.97;0.97;;;3.90;99.90;;;;;;5053319;28;20212;-66
2022/04/27 03:01:49;;;;;;;1.73;0.90;;;3.70;99.90;;;;;;5054199;28;20165;-67
2022/04/27 03:04:15;;;;;;;0.60;0.60;;;3.60;99.90;;;;;;5057425;28;20166;-67
2022/04/27 03:06:40;;;;;;;0.40;0.40;;;3.80;99.90;;;;;;5057417;28;20169;-67
2022/04/27 03:09:06;;;;;;;0.40;0.40;;;3.80;99.90;;;;;;5057077;28;20400;-67
2022/04/27 03:11:32;;;;;;;0.30;0.30;;;3.80;99.90;;;;;;5057081;28;20565;-67
2022/04/27 03:13:58;;;;;;;0.30;0.30;;;3.70;99.90;;;;;;5057302;28;20401;-66
2022/04/27 03:16:23;;;;;;;0.30;0.30;;;3.80;99.90;;;;;;5057154;28;20177;-67
2022/04/27 03:18:49;;;;;;;0.40;0.40;;;3.80;99.90;;;;;;5057042;28;20532;-67
2022/04/27 03:21:15;;;;;;;0.30;0.30;;;3.80;99.90;;;;;;5056795;28;20193;-66
2022/04/27 03:23:40;;;;;;;0.40;0.40;;;3.80;99.90;;;;;;5057227;28;20163;-65
2022/04/27 03:26:06;;;;;;;0.30;0.30;;;3.70;99.90;;;;;;5055791;28;20178;-66
2022/04/27 03:28:32;;;;;;;0.40;0.40;;;3.60;99.90;;;;;;5056905;28;20626;-67
2022/04/27 03:30:57;;;;;;;0.33;0.33;;;3.80;99.90;;;;;;5056669;28;20593;-67
2022/04/27 03:33:23;;;;;;;0.90;0.90;;;3.70;99.90;;;;;;5057021;28;20177;-67
2022/04/27 03:35:49;;;;;;;0.37;0.37;;;3.60;99.90;;;;;;5057132;28;20162;-67
2022/04/27 03:38:15;;;;;;;0.30;0.30;;;3.60;99.90;;;;;;5056801;28;20393;-66
2022/04/27 03:40:46;;;;;;;2.45;2.35;;;3.50;99.90;;;;;;5054970;28;20213;-67
2022/04/27 03:43:13;;;;;;;0.30;0.30;;;3.60;99.90;;;;;;5056837;28;20227;-67
2022/04/27 03:45:38;;;;;;;0.30;0.30;;;3.60;99.90;;;;;;5056606;28;20535;-66
2022/04/27 03:48:04;;;;;;;0.30;0.30;;;3.60;99.90;;;;;;5056579;28;20231;-67
2022/04/27 03:50:30;;;;;;;0.37;0.37;;;3.70;99.90;;;;;;5056264;28;20201;-66
2022/04/27 03:52:56;;;;;;;0.37;0.37;;;3.70;99.90;;;;;;5056607;28;20416;-66
2022/04/27 03:55:21;;;;;;;0.30;0.30;;;3.70;99.90;;;;;;5055259;28;20182;-67
2022/04/27 03:57:47;;;;;;;0.33;0.33;;;3.70;99.90;;;;;;5056294;28;20196;-67
2022/04/27 04:00:13;;;;;;;0.30;0.30;;;3.80;99.90;;;;;;5056133;28;20213;-67
2022/04/27 04:02:39;;;;;;;0.40;0.40;;;3.90;99.90;;;;;;5056192;28;20175;-67
2022/04/27 04:05:05;;;;;;;0.40;0.40;;;4.00;99.90;;;;;;5056400;28;20409;-66
2022/04/27 04:07:32;;;;;;;0.40;0.40;;;4.10;99.90;;;;;;5056314;28;20190;-67
2022/04/27 04:09:57;;;;;;;0.30;0.30;;;4.20;99.90;;;;;;5054582;28;20256;-66
2022/04/27 04:12:23;;;;;;;0.40;0.40;;;4.30;99.90;;;;;;5055747;28;20178;-67
2022/04/27 04:14:50;;;;;;;0.40;0.40;;;4.30;99.90;;;;;;5054958;28;20188;-67
2022/04/27 04:17:16;;;;;;;0.52;0.52;;;4.20;99.90;;;;;;5056017;28;20197;-67
2022/04/27 04:19:42;;;;;;;1.25;1.17;;;4.40;99.90;;;;;;5055911;28;20206;-67
2022/04/27 04:22:08;;;;;;;0.40;0.40;;;4.50;99.90;;;;;;5055592;28;20185;-67
2022/04/27 04:24:34;;;;;;;0.33;0.33;;;4.50;99.90;;;;;;5055992;28;20175;-67
2022/04/27 04:29:43;;;;;;;0.40;0.40;;;4.70;99.90;;;;;;5055518;28;20924;-66
2022/04/27 04:32:09;;;;;;;0.40;0.40;;;4.80;99.90;;;;;;5055838;28;20210;-67
2022/04/27 04:34:35;;;;;;;0.33;0.33;;;4.90;99.90;;;;;;5055879;28;20299;-67
2022/04/27 04:37:01;;;;;;;0.30;0.30;;;5.00;99.90;;;;;;5055761;28;20178;-66
2022/04/27 04:39:27;;;;;;;0.40;0.40;;;5.00;99.90;;;;;;5055644;28;20209;-65
2022/04/27 04:41:52;;;;;;;0.30;0.30;;;5.00;99.90;;;;;;5054095;28;20635;-67
2022/04/27 04:44:18;;;;;;;0.30;0.30;;;4.90;99.90;;;;;;5055406;28;20289;-66
2022/04/27 04:46:45;;;;;;;1.03;1.03;;;5.10;99.90;;;;;;5055559;28;20216;-67
2022/04/27 04:49:11;;;;;;;0.80;0.80;;;5.10;99.90;;;;;;5055487;28;20218;-67
2022/04/27 04:51:36;;;;;;;0.30;0.30;;;5.20;99.90;;;;;;5055123;28;20208;-65
2022/04/27 04:54:03;;;;;;;0.40;0.40;;;5.20;99.90;;;;;;5055240;28;20400;-67
2022/04/27 04:56:29;;;;;;;0.40;0.40;;;5.20;99.90;;;;;;5055255;28;20197;-67
2022/04/27 04:58:54;;;;;;;0.40;0.40;;;5.30;99.90;;;;;;5055260;28;20241;-67
2022/04/27 05:01:20;;;;;;;0.40;0.40;;;5.30;99.90;;;;;;5055087;28;20166;-66
2022/04/27 05:03:46;;;;;;;1.60;1.60;;;5.40;99.90;;;;;;5055242;28;20634;-66
2022/04/27 05:06:11;;;;;;;0.40;0.40;;;5.40;99.90;;;;;;5055149;28;20193;-67
2022/04/27 05:08:37;;;;;;;0.50;0.50;;;5.40;99.90;;;;;;5055044;28;20205;-66
2022/04/27 05:11:03;;;;;;;0.80;0.80;;;5.40;99.90;;;;;;5054725;28;20293;-67
2022/04/27 05:13:28;;;;;;;0.40;0.40;;;5.50;99.90;;;;;;5055096;28;20253;-67
2022/04/27 05:15:55;;;;;;;0.30;0.30;;;5.70;99.90;;;;;;5054957;28;20253;-67
2022/04/27 05:18:21;;;;;;;0.30;0.30;;;6.20;99.90;;;;;;5053486;28;20548;-67
2022/04/27 05:20:46;;;;;;;0.30;0.30;;;6.60;99.90;;;;;;5054241;28;20206;-67
2022/04/27 05:23:12;;;;;;;0.30;0.30;;;6.80;99.90;;;;;;5055072;28;20179;-66
2022/04/27 05:25:38;;;;;;;0.40;0.40;;;6.80;99.80;;;;;;5054189;28;20169;-68
2022/04/27 05:28:04;;;;;;;0.40;0.40;;;7.00;99.90;;;;;;5054937;28;20190;-67
2022/04/27 05:33:18;;;;;;;0.40;0.40;;;6.90;99.20;;;;;;5054985;28;20183;-67
2022/04/27 05:35:44;;;;;;;0.40;0.40;;;7.20;99.40;;;;;;5054536;28;20243;-69
2022/04/27 05:38:11;;;;;;;0.60;0.60;;;7.60;99.90;;;;;;5054544;28;20184;-68
2022/04/27 05:40:39;;;;;;;1.02;1.02;;;8.00;99.30;;;;;;5054269;28;20411;-67
2022/04/27 05:43:06;;;;;;;1.60;1.50;;;8.20;99.30;;;;;;5054536;28;20162;-67
2022/04/27 05:45:32;;;;;;;0.30;0.30;;;9.00;99.60;;;;;;5054451;28;20253;-67
2022/04/27 05:47:58;;;;;;;0.30;0.30;;;10.00;96.20;;;;;;5054399;28;20258;-67
2022/04/27 05:50:24;;;;;;;0.30;0.30;;;10.80;95.80;;;;;;5053945;28;20204;-67
2022/04/27 05:52:58;;;;;;;0.30;0.30;;;11.10;93.70;;;;;;5054306;28;20405;-67
2022/04/27 05:55:24;;;;;;;0.30;0.30;;;11.20;92.30;;;;;;5054371;28;20252;-67
2022/04/27 05:57:50;;;;;;;0.30;0.30;;;11.10;91.80;;;;;;5054111;28;20415;-67
2022/04/27 06:00:17;;;;;;;0.73;0.73;;;11.40;92.40;;;;;;5053808;28;20456;-67
2022/04/27 06:02:44;;;;;;;0.30;0.30;;;11.90;92.10;;;;;;5054427;28;20428;-67
2022/04/27 06:05:10;;;;;;;0.37;0.37;;;12.60;90.40;;;;;;5054009;28;20404;-68
2022/04/27 06:07:36;;;;;;;0.30;0.30;;;13.60;86.90;;;;;;5053999;28;20392;-67
2022/04/27 06:10:10;;;;;;;0.30;0.30;;;13.90;83.70;;;;;;5053762;28;20424;-67
2022/04/27 06:12:43;;;;;;;0.63;0.63;;;13.90;82.20;;;;;;5054009;28;20412;-67
2022/04/27 06:15:13;;;;;;;0.30;0.30;;;13.60;81.70;;;;;;5054022;28;20404;-68
2022/04/27 06:17:38;;;;;;;1.77;1.03;;;13.30;83.10;;;;;;5053958;28;20440;-66
2022/04/27 06:20:05;;;;;;;0.30;0.30;;;12.90;83.40;;;;;;5053421;28;20490;-66
2022/04/27 06:22:31;;;;;;;0.30;0.30;;;12.10;85.30;;;;;;5053683;28;20205;-67
2022/04/27 06:24:56;;;;;;;0.30;0.30;;;11.80;88.10;;;;;;5054049;28;20892;-67
2022/04/27 06:27:22;;;;;;;0.30;0.30;;;12.00;89.50;;;;;;5053759;28;20303;-66
2022/04/27 06:29:48;;;;;;;0.30;0.30;;;11.80;88.70;;;;;;5053578;28;20198;-68
2022/04/27 06:32:14;;;;;;;0.30;0.30;;;11.80;89.60;;;;;;5053781;28;20237;-67
2022/04/27 06:34:39;;;;;;;0.40;0.40;;;11.80;90.10;;;;;;5053667;28;20173;-67
2022/04/27 06:37:05;;;;;;;0.30;0.30;;;11.90;90.00;;;;;;5052891;28;20401;-68
2022/04/27 06:39:31;;;;;;;0.30;0.30;;;12.20;90.20;;;;;;5053452;28;20225;-68
2022/04/27 06:41:56;;;;;;;0.30;0.30;;;12.50;90.10;;;;;;5053449;28;20700;-67
2022/04/27 06:44:22;;;;;;;0.30;0.30;;;12.80;90.00;;;;;;5053434;28;20662;-67
2022/04/27 06:46:48;;;;;;;0.47;0.47;;;13.10;87.80;;;;;;5053385;28;20167;-67
2022/04/27 06:49:13;;;;;;;0.50;0.50;;;13.60;88.60;;;;;;5053348;28;20196;-67
2022/04/27 06:51:39;;;;;;;0.30;0.30;;;14.00;87.30;;;;;;5053209;28;20299;-68
2022/04/27 06:54:05;;;;;;;1.17;0.77;;;14.50;85.80;;;;;;5053490;28;20181;-67
2022/04/27 06:56:31;;;;;;;0.30;0.30;;;15.10;83.80;;;;;;5053504;28;20926;-67
2022/04/27 06:58:56;;;;;;;0.40;0.40;;;15.50;80.20;;;;;;5053119;28;20174;-68
2022/04/27 07:01:22;;;;;;;0.30;0.30;;;15.90;77.90;;;;;;5053123;28;20177;-68
2022/04/27 07:03:53;;;;;;;0.30;0.30;;;16.30;75.50;;;;;;5053454;28;20201;-68
2022/04/27 07:06:20;;;;;;;0.30;0.30;;;16.10;73.60;;;;;;5052080;28;20662;-67
2022/04/27 07:08:45;;;;;;;0.30;0.30;;;16.20;69.60;;;;;;5053413;28;20540;-68
2022/04/27 07:11:11;;;;;;;0.60;0.60;;;16.80;72.30;;;;;;5052851;28;20892;-67
2022/04/27 07:13:37;;;;;;;0.30;0.30;;;17.80;66.30;;;;;;5053154;28;20254;-67
2022/04/27 07:16:04;;;;;;;0.30;0.30;;;19.30;61.10;;;;;;5053186;28;20172;-69
2022/04/27 07:18:31;;;;;;;0.40;0.40;;;20.10;57.50;;;;;;5053047;28;20633;-68
2022/04/27 07:20:57;;;;;;;0.30;0.30;;;19.90;53.60;;;;;;5052719;28;20456;-68
2022/04/27 07:23:23;;;;;;;0.80;0.77;;;20.20;54.60;;;;;;5052009;28;20985;-68
2022/04/27 07:25:48;;;;;;;0.50;0.50;;;22.10;53.10;;;;;;5053166;28;20504;-68
2022/04/27 07:28:14;;;;;;;0.60;0.60;;;23.90;48.30;;;;;;5053018;28;20173;-69
2022/04/27 07:30:40;;;;;;;0.50;0.50;;;24.40;45.60;;;;;;5052892;28;20191;-68
2022/04/27 07:33:06;;;;;;;0.30;0.30;;;25.70;43.20;;;;;;5053076;28;20167;-68
2022/04/27 07:35:31;;;;;;;0.40;0.40;;;27.20;40.60;;;;;;5053074;28;20443;-69
2022/04/27 07:37:57;;;;;;;0.30;0.30;;;28.40;38.00;;;;;;5051852;28;20198;-67
2022/04/27 07:40:23;;;;;;;0.30;0.30;;;27.90;35.20;;;;;;5052721;28;20210;-68
2022/04/27 07:42:48;;;;;;;0.60;0.60;;;26.80;35.80;;;;;;5052881;28;20178;-68
2022/04/27 07:45:15;;;;;;;0.30;0.30;;;26.40;36.50;;;;;;5053192;28;20204;-68
2022/04/27 07:47:45;;;;;;;0.30;0.30;;;27.40;35.70;;;;;;5053774;28;20170;-68
2022/04/27 07:50:14;;;;;;;0.47;0.47;;;28.10;33.50;;;;;;5056416;28;20447;-69
2022/04/27 07:52:40;;;;;;;0.37;0.37;;;28.40;33.00;;;;;;5056708;28;20413;-68
2022/04/27 07:55:07;;;;;;;0.30;0.30;;;28.70;32.80;;;;;;5056668;28;20439;-68
2022/04/27 07:57:33;;;;;;;0.40;0.40;;;27.70;31.90;;;;;;5056400;28;20414;-68
2022/04/27 08:00:00;;;;;;;0.30;0.30;;;28.00;32.50;;;;;;5056052;28;20468;-69
2022/04/27 08:02:26;;;;;;;0.90;0.50;;;27.10;34.10;;;;;;5056415;28;20409;-68
2022/04/27 08:04:51;;;;;;;0.30;0.30;;;26.70;34.10;;;;;;5056460;28;20474;-69
2022/04/27 08:07:17;;;;;;;0.47;0.47;;;27.00;34.40;;;;;;5056412;28;20635;-68
2022/04/27 08:09:43;;;;;;;1.03;1.03;;;27.20;33.40;;;;;;5056478;28;20206;-68
2022/04/27 08:12:08;;;;;;;0.50;0.50;;;26.10;34.60;;;;;;5056303;28;20171;-68
2022/04/27 08:14:36;;;;;;;0.30;0.30;;;25.70;35.80;;;;;;5056180;28;20261;-68
2022/04/27 08:17:02;;;;;;;0.30;0.30;;;26.50;34.20;;;;;;5056216;28;20177;-68
2022/04/27 08:19:28;;;;;;;0.30;0.30;;;26.50;34.00;;;;;;5056013;28;20467;-68
2022/04/27 08:21:57;;;;;;;0.40;0.40;;;26.70;35.10;;;;;;5055753;28;20847;-68
2022/04/27 08:24:24;;;;;;;0.77;0.77;;;27.50;34.90;;;;;;5055954;28;20401;-68
2022/04/27 08:26:51;;;;;;;0.30;0.30;;;27.40;31.60;;;;;;5055918;28;20412;-68
2022/04/27 08:29:16;;;;;;;0.30;0.30;;;27.20;33.60;;;;;;5055867;28;20896;-69
2022/04/27 08:31:42;;;;;;;0.40;0.40;;;27.00;32.70;;;;;;5055720;28;20415;-69
2022/04/27 08:34:08;;;;;;;0.30;0.30;;;25.20;33.10;;;;;;5055995;28;20315;-69
2022/04/27 08:36:34;;;;;;;0.63;0.63;;;24.10;34.50;;;;;;5055881;28;20214;-67
2022/04/27 08:39:00;;;;;;;0.30;0.30;;;22.80;36.40;;;;;;5055499;28;20253;-68
2022/04/27 08:41:28;;;;;;;0.30;0.30;;;21.20;40.10;;;;;;5055551;28;20375;-67
2022/04/27 08:43:54;;;;;;;0.40;0.40;;;20.80;39.90;;;;;;5055623;28;20384;-68
2022/04/27 08:46:20;;;;;;;0.30;0.30;;;20.60;40.00;;;;;;5055701;28;20390;-68
2022/04/27 08:48:49;;;;;;;3.20;0.77;;;19.70;41.40;;;;;;5055658;28;20412;-68
2022/04/27 08:51:15;;;;;;;0.47;0.47;;;20.20;40.90;;;;;;5055104;28;20406;-67
2022/04/27 08:53:44;;;;;;;0.30;0.30;;;21.40;40.80;;;;;;5055365;28;20491;-68
2022/04/27 08:56:10;;;;;;;0.30;0.30;;;21.20;40.60;;;;;;5055016;28;20478;-68
2022/04/27 08:58:36;;;;;;;0.30;0.30;;;21.30;39.50;;;;;;5055254;28;20500;-68
2022/04/27 09:01:02;;;;;;;1.17;0.90;;;20.90;39.90;;;;;;5054322;28;20220;-68
2022/04/27 09:03:32;;;;;;;0.30;0.30;;;20.30;40.60;;;;;;5055392;28;20223;-67
2022/04/27 09:05:59;;;;;;;0.77;0.77;;;19.30;42.20;;;;;;5055030;28;20411;-68
2022/04/27 09:08:40;;;;;;;0.30;0.30;;;18.40;43.10;;;;;;5055001;28;20419;-67
2022/04/27 09:11:26;;;;;;;0.30;0.30;;;18.00;44.60;;;;;;5054949;28;20475;-68
2022/04/27 09:13:56;;;;;;;0.30;0.30;;;17.90;45.20;;;;;;5055325;28;20414;-67
2022/04/27 09:16:24;;;;;;;0.30;0.30;;;17.90;45.90;;;;;;5055088;28;20416;-68
2022/04/27 09:21:54;;;;;;;0.30;0.30;;;18.70;47.50;;;;;;5054764;28;20476;-68
2022/04/27 09:24:20;;;;;;;0.30;0.30;;;20.20;43.30;;;;;;5055022;28;20903;-68
2022/04/27 09:27:09;;;;;;;0.30;0.30;;;20.50;41.40;;;;;;5054639;28;20949;-68
2022/04/27 09:29:35;;;;;;;0.40;0.40;;;20.20;43.00;;;;;;5054613;28;20511;-67
2022/04/27 09:32:03;;;;;;;0.47;0.47;;;19.60;43.30;;;;;;5054552;28;20408;-68
2022/04/27 09:34:29;;;;;;;0.30;0.30;;;19.10;43.50;;;;;;5054677;28;20461;-67
2022/04/27 09:36:55;;;;;;;0.30;0.30;;;18.40;44.10;;;;;;5054647;28;20403;-67
2022/04/27 09:39:26;;;;;;;0.30;0.30;;;18.30;46.60;;;;;;5054777;28;20284;-67
2022/04/27 09:41:52;;;;;;;0.30;0.30;;;18.20;46.10;;;;;;5054293;28;20167;-67
2022/04/27 09:44:35;;;;;;;0.30;0.30;;;18.60;46.10;;;;;;5054301;28;20491;-67
2022/04/27 09:47:06;;;;;;;0.30;0.30;;;19.80;45.50;;;;;;5054543;28;20490;-68
2022/04/27 09:49:34;;;;;;;0.30;0.30;;;21.40;45.90;;;;;;5054720;28;20951;-67
2022/04/27 09:52:01;;;;;;;0.30;0.30;;;22.40;42.40;;;;;;5053991;28;20435;-67
2022/04/27 09:54:34;;;;;;;0.30;0.30;;;23.50;41.70;;;;;;5054414;28;20387;-68
2022/04/27 09:57:05;;;;;;;0.30;0.30;;;23.60;38.80;;;;;;5054400;28;20383;-68
2022/04/27 09:59:34;;;;;;;0.37;0.37;;;23.10;39.90;;;;;;5054275;28;20535;-67
2022/04/27 10:02:13;;;;;;;0.30;0.30;;;23.10;38.60;;;;;;5054106;28;20731;-67
2022/04/27 10:04:40;;;;;;;0.30;0.30;;;22.30;39.70;;;;;;5054301;28;20397;-67
2022/04/27 10:07:07;;;;;;;0.30;0.30;;;21.70;38.80;;;;;;5054224;28;20397;-68
2022/04/27 10:09:33;;;;;;;0.30;0.30;;;21.10;40.00;;;;;;5054018;28;20429;-67
2022/04/27 10:12:03;;;;;;;0.30;0.30;;;20.20;39.60;;;;;;5053786;28;20543;-68
2022/04/27 10:14:29;;;;;;;0.30;0.30;;;19.80;42.50;;;;;;5052760;28;20428;-67
2022/04/27 10:16:56;;;;;;;0.30;0.30;;;19.70;42.00;;;;;;5054016;28;20416;-67
2022/04/27 10:19:22;;;;;;;0.30;0.30;;;19.60;43.50;;;;;;5053777;28;20527;-67
2022/04/27 10:22:05;;;;;;;0.30;0.30;;;19.70;43.40;;;;;;5053587;28;20425;-67
2022/04/27 10:24:43;;;;;;;0.30;0.30;;;19.20;43.30;;;;;;5054012;28;20409;-67
2022/04/27 10:27:34;;;;;;;0.30;0.30;;;19.30;42.40;;;;;;5053782;28;20411;-68
2022/04/27 10:30:05;;;;;;;0.30;0.30;;;19.20;43.80;;;;;;5053573;28;20566;-67
2022/04/27 10:32:40;;;;;;;0.30;0.30;;;19.20;43.20;;;;;;5053767;28;20405;-68
2022/04/27 10:35:11;;;;;;;0.30;0.30;;;18.60;43.20;;;;;;5053660;28;20410;-67
2022/04/27 10:37:59;;;;;;;0.30;0.30;;;18.50;43.70;;;;;;5053593;28;20420;-67
2022/04/27 10:40:39;;;;;;;0.30;0.30;;;17.70;43.10;;;;;;5053282;28;20460;-67
2022/04/27 10:43:08;;;;;;;1.00;0.87;;;16.90;44.00;;;;;;5053579;28;20388;-67
2022/04/27 10:45:44;;;;;;;0.40;0.40;;;17.10;46.80;;;;;;5053561;28;20403;-67
2022/04/27 10:48:16;;;;;;;0.30;0.30;;;17.60;45.40;;;;;;5053636;28;20833;-67
2022/04/27 10:51:00;;;;;;;0.73;0.67;;;17.40;44.70;;;;;;5053357;28;20428;-67
2022/04/27 10:53:27;;;;;;;0.40;0.40;;;16.90;47.30;;;;;;5053416;28;20768;-69
2022/04/27 10:55:55;;;;;;;0.40;0.40;;;16.40;48.20;;;;;;5053519;28;20749;-67
2022/04/27 10:58:28;;;;;;;1.03;1.03;;;15.90;47.90;;;;;;5053374;28;20816;-67
2022/04/27 11:01:02;;;;;;;0.83;0.63;;;15.90;48.90;;;;;;5052922;28;20452;-67
2022/04/27 11:03:36;;;;;;;0.30;0.30;;;16.30;49.10;;;;;;5052024;28;20981;-67
2022/04/27 11:06:07;;;;;;;0.70;0.70;;;16.40;48.50;;;;;;5053443;28;20401;-67
2022/04/27 11:08:47;;;;;;;0.30;0.30;;;16.70;47.60;;;;;;5053370;28;20484;-67
2022/04/27 11:11:18;;;;;;;0.30;0.30;;;17.10;48.50;;;;;;5051700;28;20526;-66
2022/04/27 11:13:46;;;;;;;0.30;0.30;;;17.00;47.40;;;;;;5053386;28;20417;-67
2022/04/27 11:16:13;;;;;;;0.30;0.30;;;16.60;47.10;;;;;;5053274;28;20400;-67
2022/04/27 11:18:56;;;;;;;0.30;0.30;;;16.10;49.70;;;;;;5053261;28;20463;-67
2022/04/27 11:21:24;;;;;;;0.30;0.30;;;15.70;51.60;;;;;;5052657;28;20425;-66
2022/04/27 11:23:50;;;;;;;0.30;0.30;;;15.80;49.30;;;;;;5054525;28;20909;-67
2022/04/27 11:26:16;;;;;;;0.30;0.30;;;16.00;49.90;;;;;;5056985;28;20403;-67
2022/04/27 11:28:43;;;;;;;0.30;0.30;;;15.80;49.90;;;;;;5055744;28;20408;-66
2022/04/27 11:31:10;;;;;;;0.40;0.40;;;16.00;49.60;;;;;;5056805;28;20927;-67
2022/04/27 11:33:40;;;;;;;0.30;0.30;;;16.30;49.00;;;;;;5055770;28;20409;-67
2022/04/27 11:36:22;;;;;;;0.30;0.30;;;16.30;49.10;;;;;;5057302;28;20450;-66
2022/04/27 11:38:49;;;;;;;0.30;0.30;;;16.20;47.50;;;;;;5057125;28;20927;-67
2022/04/27 11:41:20;;;;;;;0.30;0.30;;;16.20;48.00;;;;;;5056527;28;20428;-67
2022/04/27 11:43:46;;;;;;;0.30;0.30;;;16.30;50.40;;;;;;5056776;28;20744;-67
2022/04/27 11:46:12;;;;;;;0.30;0.30;;;16.40;49.10;;;;;;5056750;28;20883;-68
2022/04/27 11:48:38;;;;;;;0.30;0.30;;;16.40;45.80;;;;;;5056460;28;20498;-67
2022/04/27 11:51:06;;;;;;;0.40;0.40;;;16.40;47.00;;;;;;5056339;28;20451;-66
2022/04/27 11:53:49;;;;;;;0.30;0.30;;;16.40;48.90;;;;;;5056451;28;20405;-67
2022/04/27 11:56:16;;;;;;;0.30;0.30;;;16.30;48.10;;;;;;5056592;28;20423;-68
2022/04/27 11:58:44;;;;;;;0.30;0.30;;;16.10;50.20;;;;;;5056443;28;20498;-67
2022/04/27 12:01:09;;;;;;;0.30;0.30;;;15.90;50.00;;;;;;5056038;28;20819;-68
2022/04/27 12:03:43;;;;;;;0.30;0.30;;;15.90;50.60;;;;;;5056351;28;20405;-68
2022/04/27 12:06:09;;;;;;;0.30;0.30;;;16.10;50.20;;;;;;5056385;28;20397;-67
2022/04/27 12:08:41;;;;;;;0.30;0.30;;;16.20;48.00;;;;;;5056305;28;20424;-68
2022/04/27 12:11:06;;;;;;;0.30;0.30;;;16.00;48.80;;;;;;5055942;28;20613;-67
2022/04/27 12:13:34;;;;;;;0.30;0.30;;;15.80;49.30;;;;;;5056618;28;20450;-67
2022/04/27 12:16:00;;;;;;;0.30;0.30;;;15.80;49.00;;;;;;5056095;28;20530;-67
2022/04/27 12:18:27;;;;;;;0.30;0.30;;;16.00;49.50;;;;;;5056117;28;20411;-66
2022/04/27 12:20:57;;;;;;;0.40;0.40;;;16.30;49.60;;;;;;5055563;28;20568;-67
2022/04/27 12:23:29;;;;;;;0.37;0.37;;;16.40;48.20;;;;;;5056266;28;20501;-66
2022/04/27 12:25:57;;;;;;;0.40;0.40;;;16.30;49.40;;;;;;5054786;28;20405;-68
2022/04/27 12:28:24;;;;;;;0.70;0.70;;;16.30;49.20;;;;;;5055894;28;20429;-67
2022/04/27 12:30:58;;;;;;;0.30;0.30;;;16.40;48.20;;;;;;5054330;28;20439;-67
2022/04/27 12:33:38;;;;;;;0.30;0.30;;;16.30;46.90;;;;;;5055637;28;21025;-67
2022/04/27 12:39:03;;;;;;;0.30;0.30;;;16.00;48.40;;;;;;5055881;28;20400;-67
2022/04/27 12:41:31;;;;;;;0.30;0.30;;;15.70;47.50;;;;;;5055509;28;20414;-67
2022/04/27 12:44:08;;;;;;;0.50;0.50;;;15.60;48.40;;;;;;5055660;28;20400;-67
2022/04/27 12:46:35;;;;;;;0.30;0.30;;;15.70;47.50;;;;;;5055689;28;20388;-67
2022/04/27 12:49:05;;;;;;;0.30;0.30;;;15.80;48.00;;;;;;5055374;28;20395;-68
2022/04/27 12:51:36;;;;;;;0.30;0.30;;;16.00;48.40;;;;;;5055259;28;20755;-68
2022/04/27 12:54:04;;;;;;;0.30;0.30;;;16.00;48.90;;;;;;5055605;28;20487;-67
2022/04/27 12:56:35;;;;;;;0.30;0.30;;;16.00;49.80;;;;;;5055581;28;20419;-67
2022/04/27 12:59:20;;;;;;;0.30;0.30;;;15.80;49.60;;;;;;5055343;28;20917;-67
2022/04/27 13:01:56;;;;;;;0.30;0.30;;;15.70;50.10;;;;;;5055041;28;20395;-66
2022/04/27 13:04:22;;;;;;;0.30;0.30;;;15.50;49.90;;;;;;5055509;28;20403;-67
2022/04/27 13:06:48;;;;;;;0.33;0.33;;;15.50;49.60;;;;;;5055220;28;20762;-66
2022/04/27 13:11:57;;;;;;;0.30;0.30;;;15.60;50.30;;;;;;5054832;28;20415;-67
2022/04/27 13:14:25;;;;;;;0.30;0.30;;;15.50;49.20;;;;;;5055022;28;20400;-68